createdAt,value
2018-05-12T00:02:23.773Z,52.90
2018-05-12T00:04:50.430Z,48.17
2018-05-12T00:07:16.313Z,52.20
2018-05-12T00:09:42.232Z,58.43
2018-05-12T00:12:08.135Z,51.47
2018-05-12T00:14:34.033Z,52.73
2018-05-12T00:16:59.939Z,53.20
2018-05-12T00:19:25.832Z,56.30
2018-05-12T00:21:52.484Z,57.27
2018-05-12T00:24:19.115Z,56.70
2018-05-12T00:26:45.738Z,54.70
2018-05-12T00:29:11.648Z,48.40
2018-05-12T00:31:37.547Z,53.73
2018-05-12T00:34:03.467Z,55.80
2018-05-12T00:36:29.365Z,58.77
2018-05-12T00:38:55.269Z,60.23
2018-05-12T00:41:21.184Z,57.97
2018-05-12T00:43:47.822Z,62.50
2018-05-12T00:46:14.465Z,56.60
2018-05-12T00:48:40.368Z,54.63
2018-05-12T00:51:07.029Z,57.03
2018-05-12T00:53:32.920Z,50.87
2018-05-12T00:55:58.806Z,50.90
2018-05-12T00:58:24.720Z,48.53
2018-05-12T01:00:50.642Z,54.60
2018-05-12T01:03:16.533Z,51.80
2018-05-12T01:05:42.433Z,49.83
2018-05-12T01:08:09.079Z,52.33
2018-05-12T01:10:35.718Z,56.93
2018-05-12T01:13:01.602Z,42.07
2018-05-12T01:15:27.502Z,53.70
2018-05-12T01:17:53.407Z,53.50
2018-05-12T01:20:19.306Z,48.03
2018-05-12T01:22:45.192Z,51.37
2018-05-12T01:25:11.089Z,50.67
2018-05-12T01:27:36.972Z,58.93
2018-05-12T01:30:02.868Z,54.57
2018-05-12T01:32:29.515Z,50.50
2018-05-12T01:34:56.137Z,51.33
2018-05-12T01:37:22.042Z,50.13
2018-05-12T01:39:47.925Z,53.33
2018-05-12T01:42:13.830Z,52.20
2018-05-12T01:44:39.721Z,49.40
2018-05-12T01:47:06.350Z,60.50
2018-05-12T01:49:32.690Z,55.20
2018-05-12T01:51:58.767Z,52.00
2018-05-12T01:54:24.660Z,56.90
2018-05-12T01:56:50.691Z,52.00
2018-05-12T01:59:16.590Z,52.03
2018-05-12T02:01:43.347Z,53.73
2018-05-12T02:04:09.236Z,62.60
2018-05-12T02:06:35.136Z,56.23
2018-05-12T02:09:01.020Z,61.97
2018-05-12T02:11:26.916Z,59.23
2018-05-12T02:13:53.545Z,56.40
2018-05-12T02:16:19.450Z,55.43
2018-05-12T02:18:46.182Z,64.43
2018-05-12T02:21:12.074Z,58.00
2018-05-12T02:23:37.973Z,57.67
2018-05-12T02:26:03.858Z,57.57
2018-05-12T02:28:30.517Z,54.90
2018-05-12T02:30:56.415Z,50.50
2018-05-12T02:33:23.073Z,54.63
2018-05-12T02:35:48.974Z,48.37
2018-05-12T02:38:15.685Z,47.93
2018-05-12T02:40:41.617Z,48.37
2018-05-12T02:43:07.510Z,45.07
2018-05-12T02:45:33.421Z,46.57
2018-05-12T02:47:59.333Z,45.83
2018-05-12T02:50:25.294Z,43.70
2018-05-12T02:52:51.191Z,45.40
2018-05-12T02:55:17.078Z,44.33
2018-05-12T02:57:43.024Z,45.07
2018-05-12T03:00:08.922Z,46.23
2018-05-12T03:02:34.848Z,44.03
2018-05-12T03:05:00.750Z,46.23
2018-05-12T03:07:27.411Z,44.27
2018-05-12T03:09:53.318Z,43.13
2018-05-12T03:12:19.970Z,42.07
2018-05-12T03:14:45.889Z,39.07
2018-05-12T03:17:12.145Z,49.00
2018-05-12T03:19:38.093Z,42.83
2018-05-12T03:22:03.973Z,45.57
2018-05-12T03:24:29.875Z,43.33
2018-05-12T03:26:55.790Z,44.63
2018-05-12T03:29:21.689Z,43.60
2018-05-12T03:31:47.590Z,45.70
2018-05-12T03:34:13.504Z,44.73
2018-05-12T03:36:39.411Z,40.97
2018-05-12T03:39:05.311Z,40.23
2018-05-12T03:41:31.214Z,40.63
2018-05-12T03:43:57.116Z,44.20
2018-05-12T03:46:23.747Z,40.33
2018-05-12T03:48:49.656Z,41.60
2018-05-12T03:51:15.574Z,43.50
2018-05-12T03:53:41.474Z,44.40
2018-05-12T03:56:07.400Z,43.90
2018-05-12T03:58:33.305Z,44.43
2018-05-12T04:00:59.230Z,45.77
2018-05-12T04:03:25.130Z,52.07
2018-05-12T04:06:03.570Z,37.33
2018-05-12T04:08:42.648Z,42.27
2018-05-12T04:11:21.111Z,39.13
2018-05-12T04:13:46.997Z,42.83
2018-05-12T04:16:12.910Z,42.63
2018-05-12T04:18:39.583Z,40.63
2018-05-12T04:21:05.585Z,41.60
2018-05-12T04:23:31.429Z,44.33
2018-05-12T04:25:57.318Z,45.40
2018-05-12T04:28:23.988Z,41.80
2018-05-12T04:30:49.887Z,42.93
2018-05-12T04:33:15.797Z,44.43
2018-05-12T04:35:41.719Z,47.10
2018-05-12T04:38:07.625Z,41.87
2018-05-12T04:40:34.296Z,45.53
2018-05-12T04:43:00.196Z,50.50
2018-05-12T04:45:26.849Z,51.10
2018-05-12T04:47:52.753Z,49.30
2018-05-12T04:50:19.391Z,50.73
2018-05-12T04:52:46.059Z,47.80
2018-05-12T04:55:11.967Z,55.30
2018-05-12T04:57:37.880Z,47.47
2018-05-12T05:00:03.770Z,51.77
2018-05-12T05:02:30.542Z,54.00
2018-05-12T05:04:56.456Z,47.50
2018-05-12T05:07:22.357Z,48.80
2018-05-12T05:09:48.270Z,44.80
2018-05-12T05:12:14.166Z,48.10
2018-05-12T05:14:40.069Z,47.77
2018-05-12T05:17:06.000Z,50.00
2018-05-12T05:19:31.931Z,47.47
2018-05-12T05:21:57.850Z,46.73
2018-05-12T05:24:23.749Z,45.63
2018-05-12T05:26:49.653Z,51.57
2018-05-12T05:29:15.553Z,51.10
2018-05-12T05:31:42.200Z,48.33
2018-05-12T05:34:08.822Z,47.80
2018-05-12T05:36:35.484Z,45.10
2018-05-12T05:39:01.386Z,45.13
2018-05-12T05:41:28.088Z,47.77
2018-05-12T05:43:53.949Z,42.63
2018-05-12T05:46:20.632Z,50.27
2018-05-12T05:48:46.529Z,49.10
2018-05-12T05:51:12.428Z,44.97
2018-05-12T05:53:39.089Z,48.63
2018-05-12T05:56:04.993Z,54.40
2018-05-12T05:58:31.630Z,45.03
2018-05-12T06:00:57.552Z,49.03
2018-05-12T06:03:23.472Z,49.37
2018-05-12T06:05:49.411Z,43.60
2018-05-12T06:08:15.317Z,49.33
2018-05-12T06:10:41.230Z,47.93
2018-05-12T06:13:07.862Z,47.30
2018-05-12T06:15:34.509Z,47.27
2018-05-12T06:18:00.440Z,49.90
2018-05-12T06:20:26.342Z,46.70
2018-05-12T06:22:53.028Z,46.57
2018-05-12T06:25:18.935Z,50.43
2018-05-12T06:27:44.856Z,47.10
2018-05-12T06:30:10.757Z,53.23
2018-05-12T06:32:36.670Z,43.87
2018-05-12T06:35:03.356Z,48.60
2018-05-12T06:37:29.273Z,42.23
2018-05-12T06:39:55.162Z,47.10
2018-05-12T06:42:21.081Z,51.40
2018-05-12T06:44:46.972Z,45.23
2018-05-12T06:47:12.892Z,51.63
2018-05-12T06:49:38.788Z,55.17
2018-05-12T06:52:04.702Z,50.33
2018-05-12T06:54:30.687Z,50.13
2018-05-12T06:56:56.622Z,51.67
2018-05-12T06:59:22.524Z,57.03
2018-05-12T07:01:48.485Z,49.50
2018-05-12T07:04:14.382Z,49.47
2018-05-12T07:06:40.294Z,51.90
2018-05-12T07:09:06.223Z,51.90
2018-05-12T07:11:32.130Z,54.27
2018-05-12T07:13:58.041Z,49.17
2018-05-12T07:16:24.674Z,43.13
2018-05-12T07:18:51.345Z,47.50
2018-05-12T07:21:17.267Z,48.67
2018-05-12T07:23:43.162Z,49.83
2018-05-12T07:26:09.843Z,51.37
2018-05-12T07:28:35.762Z,53.20
2018-05-12T07:31:01.676Z,52.03
2018-05-12T07:33:27.579Z,50.47
2018-05-12T07:35:53.500Z,47.23
2018-05-12T07:38:19.407Z,52.47
2018-05-12T07:40:46.058Z,45.60
2018-05-12T07:43:11.969Z,56.03
2018-05-12T07:45:38.771Z,48.30
2018-05-12T07:48:04.660Z,42.03
2018-05-12T07:50:30.559Z,40.97
2018-05-12T07:52:56.488Z,41.73
2018-05-12T07:55:22.450Z,49.57
2018-05-12T07:57:48.331Z,48.83
2018-05-12T08:00:14.276Z,46.37
2018-05-12T08:02:40.178Z,33.87
2018-05-12T08:05:06.098Z,39.83
2018-05-12T08:07:32.004Z,47.30
2018-05-12T08:09:57.893Z,49.87
2018-05-12T08:12:24.546Z,36.83
2018-05-12T08:14:51.185Z,31.70
2018-05-12T08:17:17.094Z,42.40
2018-05-12T08:19:43.731Z,36.20
2018-05-12T08:22:10.378Z,39.40
2018-05-12T08:24:37.033Z,33.70
2018-05-12T08:27:02.921Z,35.30
2018-05-12T08:29:28.846Z,37.93
2018-05-12T08:31:54.747Z,36.53
2018-05-12T08:34:20.654Z,38.20
2018-05-12T08:36:46.575Z,37.53
2018-05-12T08:39:12.470Z,40.80
2018-05-12T08:41:38.397Z,36.67
2018-05-12T08:44:04.288Z,38.17
2018-05-12T08:46:30.941Z,37.33
2018-05-12T08:48:56.862Z,32.70
2018-05-12T08:51:29.710Z,37.17
2018-05-12T08:53:55.664Z,36.30
2018-05-12T08:56:21.631Z,41.93
2018-05-12T08:58:47.535Z,34.67
2018-05-12T09:01:13.555Z,28.67
2018-05-12T09:03:39.454Z,34.57
2018-05-12T09:06:05.398Z,28.80
2018-05-12T09:08:31.335Z,32.90
2018-05-12T09:10:57.230Z,34.10
2018-05-12T09:13:24.125Z,27.30
2018-05-12T09:15:50.018Z,34.90
2018-05-12T09:18:15.910Z,25.37
2018-05-12T09:20:41.855Z,32.53
2018-05-12T09:23:07.775Z,30.83
2018-05-12T09:25:33.680Z,32.53
2018-05-12T09:27:59.595Z,36.10
2018-05-12T09:30:25.484Z,28.77
2018-05-12T09:32:52.161Z,26.87
2018-05-12T09:35:18.091Z,26.47
2018-05-12T09:37:44.175Z,29.43
2018-05-12T09:40:10.093Z,27.17
2018-05-12T09:42:36.926Z,28.40
2018-05-12T09:45:02.897Z,27.50
2018-05-12T09:47:29.025Z,27.40
2018-05-12T09:49:54.909Z,28.23
2018-05-12T09:52:20.901Z,25.47
2018-05-12T09:54:46.733Z,24.00
2018-05-12T09:57:13.486Z,23.10
2018-05-12T09:59:39.475Z,27.30
2018-05-12T10:02:05.492Z,28.87
2018-05-12T10:04:32.161Z,23.17
2018-05-12T10:06:58.844Z,31.73
2018-05-12T10:09:24.829Z,25.40
2018-05-12T10:11:50.758Z,28.10
2018-05-12T10:14:16.656Z,27.67
2018-05-12T10:16:42.560Z,25.80
2018-05-12T10:19:08.448Z,22.20
2018-05-12T10:21:34.387Z,24.47
2018-05-12T10:24:00.302Z,24.40
2018-05-12T10:26:26.209Z,25.30
2018-05-12T10:28:52.130Z,20.33
2018-05-12T10:31:18.034Z,26.93
2018-05-12T10:33:43.945Z,21.63
2018-05-12T10:36:09.938Z,19.80
2018-05-12T10:38:36.647Z,22.37
2018-05-12T10:41:02.534Z,23.83
2018-05-12T10:43:28.438Z,24.57
2018-05-12T10:45:54.337Z,19.60
2018-05-12T10:48:20.231Z,20.63
2018-05-12T10:50:46.152Z,24.40
2018-05-12T10:53:12.043Z,21.77
2018-05-12T10:55:37.962Z,24.83
2018-05-12T10:58:03.913Z,21.07
2018-05-12T11:00:29.833Z,27.00
2018-05-12T11:02:55.771Z,22.30
2018-05-12T11:05:21.685Z,30.67
2018-05-12T11:07:47.617Z,23.43
2018-05-12T11:10:13.556Z,22.50
2018-05-12T11:12:40.198Z,25.93
2018-05-12T11:15:06.833Z,24.40
2018-05-12T11:17:33.455Z,23.30
2018-05-12T11:20:00.229Z,25.00
2018-05-12T11:22:26.854Z,23.50
2018-05-12T11:24:53.500Z,21.77
2018-05-12T11:27:20.165Z,20.20
2018-05-12T11:29:46.121Z,20.17
2018-05-12T11:32:12.041Z,19.13
2018-05-12T11:34:37.924Z,18.67
2018-05-12T11:37:03.836Z,23.43
2018-05-12T11:39:29.753Z,23.90
2018-05-12T11:41:55.672Z,25.40
2018-05-12T11:44:21.577Z,22.27
2018-05-12T11:46:48.206Z,20.93
2018-05-12T11:49:14.847Z,21.10
2018-05-12T11:51:40.759Z,23.60
2018-05-12T11:54:06.692Z,21.57
2018-05-12T11:56:32.726Z,23.30
2018-05-12T11:58:59.412Z,27.07
2018-05-12T12:01:25.303Z,23.00
2018-05-12T12:03:52.054Z,25.23
2018-05-12T12:06:17.856Z,26.90
2018-05-12T12:08:43.790Z,32.50
2018-05-12T12:11:09.706Z,22.60
2018-05-12T12:13:35.628Z,31.47
2018-05-12T12:16:01.548Z,22.10
2018-05-12T12:18:27.479Z,17.90
2018-05-12T12:20:53.409Z,21.20
2018-05-12T12:23:19.306Z,22.47
2018-05-12T12:25:45.195Z,32.67
2018-05-12T12:28:11.869Z,18.17
2018-05-12T12:30:37.761Z,17.50
2018-05-12T12:33:04.440Z,20.70
2018-05-12T12:35:30.350Z,21.90
2018-05-12T12:37:56.251Z,19.87
2018-05-12T12:40:22.929Z,20.70
2018-05-12T12:42:48.840Z,16.70
2018-05-12T12:45:14.745Z,18.30
2018-05-12T12:47:40.657Z,16.23
2018-05-12T12:50:06.568Z,15.37
2018-05-12T12:52:33.434Z,19.63
2018-05-12T12:54:59.381Z,16.10
2018-05-12T12:57:25.309Z,15.73
2018-05-12T12:59:51.262Z,15.60
2018-05-12T13:02:17.898Z,16.80
2018-05-12T13:04:44.552Z,19.97
2018-05-12T13:07:10.449Z,16.30
2018-05-12T13:09:36.366Z,17.50
2018-05-12T13:12:02.272Z,16.63
2018-05-12T13:14:28.177Z,19.10
2018-05-12T13:16:54.122Z,20.53
2018-05-12T13:19:20.037Z,16.70
2018-05-12T13:21:45.923Z,17.67
2018-05-12T13:24:13.656Z,14.80
2018-05-12T13:26:40.311Z,15.10
2018-05-12T13:29:06.224Z,16.00
2018-05-12T13:31:33.176Z,16.37
2018-05-12T13:33:59.067Z,21.70
2018-05-12T13:36:25.719Z,18.37
2018-05-12T13:38:52.383Z,18.70
2018-05-12T13:41:18.269Z,22.20
2018-05-12T13:43:44.938Z,22.97
2018-05-12T13:46:10.837Z,17.90
2018-05-12T13:48:37.489Z,21.40
2018-05-12T13:51:03.390Z,17.83
2018-05-12T13:53:30.053Z,14.80
2018-05-12T13:55:56.001Z,14.50
2018-05-12T13:58:21.889Z,13.37
2018-05-12T14:00:47.863Z,14.13
2018-05-12T14:03:13.764Z,13.23
2018-05-12T14:05:39.673Z,15.80
2018-05-12T14:08:05.645Z,14.73
2018-05-12T14:10:32.292Z,21.63
2018-05-12T14:12:58.919Z,14.63
2018-05-12T14:15:24.838Z,15.90
2018-05-12T14:17:51.479Z,16.50
2018-05-12T14:20:18.120Z,27.63
2018-05-12T14:22:44.785Z,14.27
2018-05-12T14:25:10.669Z,14.67
2018-05-12T14:27:36.566Z,17.30
2018-05-12T14:30:02.482Z,15.67
2018-05-12T14:32:28.425Z,13.00
2018-05-12T14:34:54.354Z,12.90
2018-05-12T14:37:20.299Z,14.47
2018-05-12T14:39:46.944Z,13.00
2018-05-12T14:42:12.873Z,11.10
2018-05-12T14:44:38.807Z,14.03
2018-05-12T14:47:04.695Z,13.00
2018-05-12T14:49:31.355Z,14.97
2018-05-12T14:51:57.282Z,12.93
2018-05-12T14:54:23.175Z,19.60
2018-05-12T14:56:49.830Z,11.50
2018-05-12T14:59:15.845Z,13.40
2018-05-12T15:01:41.689Z,13.10
2018-05-12T15:04:07.589Z,12.00
2018-05-12T15:06:33.512Z,12.50
2018-05-12T15:08:59.437Z,14.90
2018-05-12T15:11:25.353Z,13.57
2018-05-12T15:13:51.299Z,12.13
2018-05-12T15:16:17.202Z,12.07
2018-05-12T15:18:43.108Z,14.27
2018-05-12T15:21:09.021Z,15.33
2018-05-12T15:23:35.649Z,14.17
2018-05-12T15:26:02.318Z,12.67
2018-05-12T15:28:28.389Z,12.60
2018-05-12T15:30:54.344Z,13.10
2018-05-12T15:33:20.286Z,13.20
2018-05-12T15:35:46.292Z,10.70
2018-05-12T15:38:12.185Z,15.93
2018-05-12T15:40:38.123Z,12.10
2018-05-12T15:43:05.068Z,12.37
2018-05-12T15:45:31.882Z,11.37
2018-05-12T15:47:58.117Z,12.57
2018-05-12T15:50:24.956Z,15.47
2018-05-12T15:52:50.863Z,14.17
2018-05-12T15:55:16.813Z,13.20
2018-05-12T15:57:43.544Z,13.00
2018-05-12T16:00:09.458Z,21.10
2018-05-12T16:02:35.446Z,15.10
2018-05-12T16:05:01.351Z,16.97
2018-05-12T16:07:27.290Z,16.07
2018-05-12T16:09:53.185Z,14.03
2018-05-12T16:12:19.193Z,12.97
2018-05-12T16:14:45.045Z,14.40
2018-05-12T16:17:10.957Z,13.47
2018-05-12T16:19:36.912Z,17.63
2018-05-12T16:22:02.827Z,14.30
2018-05-12T16:24:28.768Z,18.63
2018-05-12T16:26:54.683Z,16.20
2018-05-12T16:29:20.597Z,17.40
2018-05-12T16:31:46.510Z,15.77
2018-05-12T16:34:12.454Z,15.70
2018-05-12T16:36:38.352Z,18.30
2018-05-12T16:39:04.275Z,15.00
2018-05-12T16:41:30.621Z,16.30
2018-05-12T16:43:56.515Z,18.07
2018-05-12T16:46:22.448Z,18.03
2018-05-12T16:48:48.378Z,17.73
2018-05-12T16:51:14.322Z,17.70
2018-05-12T16:53:40.250Z,21.27
2018-05-12T16:56:06.159Z,17.07
2018-05-12T16:58:32.074Z,19.23
2018-05-12T17:00:57.977Z,22.57
2018-05-12T17:03:23.934Z,24.77
2018-05-12T17:05:50.617Z,20.17
2018-05-12T17:08:16.734Z,20.27
2018-05-12T17:10:42.653Z,20.33
2018-05-12T17:13:08.618Z,17.87
2018-05-12T17:15:34.553Z,16.87
2018-05-12T17:18:01.193Z,16.30
2018-05-12T17:20:27.836Z,18.67
2018-05-12T17:22:53.834Z,23.13
2018-05-12T17:25:19.774Z,20.57
2018-05-12T17:27:52.687Z,18.00
2018-05-12T17:30:18.620Z,18.73
2018-05-12T17:32:44.550Z,17.17
2018-05-12T17:35:10.513Z,24.40
2018-05-12T17:37:36.459Z,17.27
2018-05-12T17:40:03.129Z,19.60
2018-05-12T17:42:29.058Z,22.17
2018-05-12T17:44:55.256Z,20.63
2018-05-12T17:47:23.424Z,19.40
2018-05-12T17:49:49.325Z,20.80
2018-05-12T17:52:16.082Z,22.60
2018-05-12T17:54:42.856Z,19.20
2018-05-12T17:57:08.775Z,21.77
2018-05-12T17:59:34.700Z,21.10
2018-05-12T18:02:00.619Z,18.53
2018-05-12T18:04:26.600Z,20.30
2018-05-12T18:06:53.671Z,21.00
2018-05-12T18:09:19.565Z,20.90
2018-05-12T18:11:46.243Z,22.93
2018-05-12T18:14:12.152Z,22.73
2018-05-12T18:16:38.085Z,26.03
2018-05-12T18:19:04.240Z,30.33
2018-05-12T18:21:30.158Z,22.43
2018-05-12T18:23:56.114Z,21.70
2018-05-12T18:26:22.776Z,22.80
2018-05-12T18:28:48.756Z,23.10
2018-05-12T18:31:14.662Z,21.93
2018-05-12T18:33:41.629Z,25.13
2018-05-12T18:36:07.580Z,25.90
2018-05-12T18:38:33.492Z,27.60
2018-05-12T18:41:00.198Z,26.80
2018-05-12T18:43:26.141Z,26.80
2018-05-12T18:45:52.780Z,28.20
2018-05-12T18:48:18.696Z,28.70
2018-05-12T18:50:45.406Z,30.57
2018-05-12T18:53:11.308Z,26.93
2018-05-12T18:55:37.216Z,24.40
2018-05-12T18:58:03.147Z,28.57
2018-05-12T19:00:29.080Z,37.13
2018-05-12T19:02:55.012Z,29.93
2018-05-12T19:05:20.969Z,29.83
2018-05-12T19:07:47.688Z,24.20
2018-05-12T19:10:13.648Z,28.00
2018-05-12T19:12:39.568Z,31.37
2018-05-12T19:15:05.504Z,31.30
2018-05-12T19:17:31.432Z,25.60
2018-05-12T19:19:57.370Z,27.17
2018-05-12T19:22:23.318Z,24.00
2018-05-12T19:24:49.236Z,30.13
2018-05-12T19:27:15.142Z,29.30
2018-05-12T19:29:41.080Z,26.70
2018-05-12T19:32:07.009Z,35.63
2018-05-12T19:34:33.658Z,26.33
2018-05-12T19:36:59.637Z,26.97
2018-05-12T19:39:25.546Z,28.30
2018-05-12T19:41:51.456Z,29.40
2018-05-12T19:44:17.370Z,28.23
2018-05-12T19:46:43.285Z,27.63
2018-05-12T19:49:09.185Z,33.97
2018-05-12T19:51:35.841Z,28.43
2018-05-12T19:54:01.775Z,29.60
2018-05-12T19:56:27.689Z,32.43
2018-05-12T19:58:53.580Z,33.27
2018-05-12T20:01:20.231Z,29.77
2018-05-12T20:03:46.925Z,25.33
2018-05-12T20:06:12.802Z,28.33
2018-05-12T20:08:38.745Z,30.00
2018-05-12T20:11:04.692Z,28.13
2018-05-12T20:13:30.650Z,32.57
2018-05-12T20:15:56.620Z,27.60
2018-05-12T20:18:22.514Z,34.87
2018-05-12T20:20:48.451Z,34.77
2018-05-12T20:23:14.352Z,28.53
2018-05-12T20:25:40.326Z,32.23
2018-05-12T20:28:06.179Z,29.07
2018-05-12T20:30:32.844Z,30.93
2018-05-12T20:32:58.761Z,31.37
2018-05-12T20:35:24.672Z,30.57
2018-05-12T20:37:50.602Z,31.13
2018-05-12T20:40:16.524Z,31.80
2018-05-12T20:42:42.471Z,30.20
2018-05-12T20:45:08.386Z,38.60
2018-05-12T20:47:34.283Z,27.77
2018-05-12T20:50:00.228Z,33.33
2018-05-12T20:52:26.130Z,26.77
2018-05-12T20:54:52.042Z,26.67
2018-05-12T20:57:17.972Z,29.70
2018-05-12T20:59:43.870Z,30.20
2018-05-12T21:02:10.534Z,28.20
2018-05-12T21:04:36.427Z,36.83
2018-05-12T21:07:03.108Z,31.13
2018-05-12T21:09:29.012Z,30.57
2018-05-12T21:11:54.940Z,24.63
2018-05-12T21:14:20.849Z,29.80
2018-05-12T21:16:46.783Z,29.40
2018-05-12T21:19:12.740Z,30.20
2018-05-12T21:21:38.658Z,29.07
2018-05-12T21:24:04.670Z,31.43
2018-05-12T21:26:30.510Z,30.73
2018-05-12T21:28:56.535Z,30.53
2018-05-12T21:31:23.239Z,35.00
2018-05-12T21:33:49.156Z,33.60
2018-05-12T21:36:15.233Z,27.77
2018-05-12T21:38:41.898Z,27.97
2018-05-12T21:41:07.830Z,29.53
2018-05-12T21:43:33.767Z,28.47
2018-05-12T21:45:59.768Z,31.27
2018-05-12T21:48:25.682Z,30.60
2018-05-12T21:50:51.614Z,29.47
2018-05-12T21:53:17.521Z,30.83
2018-05-12T21:55:43.449Z,31.50
2018-05-12T21:58:09.354Z,29.90
2018-05-12T22:00:35.261Z,29.17
2018-05-12T22:03:01.924Z,27.33
2018-05-12T22:05:27.954Z,28.50
2018-05-12T22:07:54.324Z,34.73
2018-05-12T22:10:20.750Z,33.90
2018-05-12T22:12:47.443Z,26.07
2018-05-12T22:15:13.408Z,27.00
2018-05-12T22:17:39.433Z,34.00
2018-05-12T22:20:06.032Z,25.57
2018-05-12T22:22:32.010Z,28.70
2018-05-12T22:24:58.113Z,34.83
2018-05-12T22:27:24.169Z,43.90
2018-05-12T22:29:50.850Z,28.83
2018-05-12T22:32:16.781Z,37.13
2018-05-12T22:34:42.699Z,30.90
2018-05-12T22:37:08.641Z,32.40
2018-05-12T22:39:34.545Z,28.00
2018-05-12T22:42:00.460Z,25.93
2018-05-12T22:44:26.390Z,25.03
2018-05-12T22:46:52.333Z,26.27
2018-05-12T22:49:18.243Z,25.27
2018-05-12T22:51:44.159Z,24.57
2018-05-12T22:54:10.133Z,33.93
2018-05-12T22:56:36.031Z,32.63
2018-05-12T22:59:01.952Z,28.03
2018-05-12T23:01:27.869Z,26.97
2018-05-12T23:03:53.774Z,26.77
2018-05-12T23:06:19.736Z,33.03
2018-05-12T23:08:45.627Z,29.60
2018-05-12T23:11:11.560Z,30.47
2018-05-12T23:13:37.442Z,32.07
2018-05-12T23:16:03.365Z,33.13
2018-05-12T23:18:29.322Z,25.93
2018-05-12T23:20:55.202Z,34.20
2018-05-12T23:23:21.116Z,28.00
2018-05-12T23:25:47.012Z,31.80
2018-05-12T23:28:12.929Z,30.07
2018-05-12T23:30:38.839Z,31.87
2018-05-12T23:33:05.462Z,31.80
2018-05-12T23:35:31.407Z,27.37
2018-05-12T23:37:58.061Z,28.13
2018-05-12T23:40:23.975Z,32.53
2018-05-12T23:42:50.580Z,27.53
2018-05-12T23:45:16.477Z,28.87
2018-05-12T23:47:42.379Z,27.37
2018-05-12T23:50:08.301Z,33.60
2018-05-12T23:52:34.223Z,29.60
2018-05-12T23:55:00.137Z,35.63
2018-05-12T23:57:26.055Z,32.20
2018-05-12T23:59:51.968Z,26.87
